sensor_id;sensor_type;location;lat;lon;timestamp;P1;durP1;ratioP1;P2;durP2;ratioP2
50851;SDS011;43953;45.508;-122.806;2022-08-18T00:00:19;3.33;;;1.67;;
50851;SDS011;43953;45.508;-122.806;2022-08-18T00:00:51;3.95;;;1.67;;
50851;SDS011;43953;45.508;-122.806;2022-08-18T00:01:23;1.83;;;1.70;;
50851;SDS011;43953;45.508;-122.806;2022-08-18T00:02:43;3.80;;;1.90;;
50851;SDS011;43953;45.508;-122.806;2022-08-18T00:03:15;4.25;;;1.80;;
50851;SDS011;43953;45.508;-122.806;2022-08-18T00:03:49;3.40;;;1.80;;
50851;SDS011;43953;45.508;-122.806;2022-08-18T00:04:21;1.80;;;1.70;;
50851;SDS011;43953;45.508;-122.806;2022-08-18T00:04:52;5.00;;;1.80;;
50851;SDS011;43953;45.508;-122.806;2022-08-18T00:05:25;4.22;;;1.98;;
50851;SDS011;43953;45.508;-122.806;2022-08-18T00:05:57;3.63;;;1.88;;
50851;SDS011;43953;45.508;-122.806;2022-08-18T00:06:28;2.58;;;1.70;;
50851;SDS011;43953;45.508;-122.806;2022-08-18T00:07:00;3.65;;;1.80;;
50851;SDS011;43953;45.508;-122.806;2022-08-18T00:07:32;2.63;;;1.60;;
50851;SDS011;43953;45.508;-122.806;2022-08-18T00:08:06;2.90;;;2.00;;
50851;SDS011;43953;45.508;-122.806;2022-08-18T00:08:37;3.25;;;1.70;;
50851;SDS011;43953;45.508;-122.806;2022-08-18T00:09:09;2.47;;;1.90;;
50851;SDS011;43953;45.508;-122.806;2022-08-18T00:09:42;5.63;;;1.80;;
50851;SDS011;43953;45.508;-122.806;2022-08-18T00:10:14;1.77;;;1.65;;
50851;SDS011;43953;45.508;-122.806;2022-08-18T00:10:46;3.97;;;1.90;;
50851;SDS011;43953;45.508;-122.806;2022-08-18T00:11:17;3.13;;;2.05;;
50851;SDS011;43953;45.508;-122.806;2022-08-18T00:11:50;3.90;;;2.10;;
50851;SDS011;43953;45.508;-122.806;2022-08-18T00:12:27;3.05;;;1.90;;
50851;SDS011;43953;45.508;-122.806;2022-08-18T00:13:04;2.85;;;1.88;;
50851;SDS011;43953;45.508;-122.806;2022-08-18T00:13:36;2.50;;;1.98;;
50851;SDS011;43953;45.508;-122.806;2022-08-18T00:14:09;3.50;;;2.10;;
50851;SDS011;43953;45.508;-122.806;2022-08-18T00:14:47;4.03;;;1.90;;
50851;SDS011;43953;45.508;-122.806;2022-08-18T00:15:19;3.50;;;1.98;;
50851;SDS011;43953;45.508;-122.806;2022-08-18T00:15:53;1.80;;;1.70;;
50851;SDS011;43953;45.508;-122.806;2022-08-18T00:16:25;5.03;;;1.98;;
50851;SDS011;43953;45.508;-122.806;2022-08-18T00:16:56;3.45;;;1.95;;
50851;SDS011;43953;45.508;-122.806;2022-08-18T00:17:29;3.20;;;1.92;;
50851;SDS011;43953;45.508;-122.806;2022-08-18T00:18:01;2.97;;;1.67;;
50851;SDS011;43953;45.508;-122.806;2022-08-18T00:18:33;3.50;;;1.90;;
50851;SDS011;43953;45.508;-122.806;2022-08-18T00:19:05;3.83;;;1.73;;
50851;SDS011;43953;45.508;-122.806;2022-08-18T00:19:36;3.92;;;1.80;;
50851;SDS011;43953;45.508;-122.806;2022-08-18T00:20:11;4.57;;;2.60;;
50851;SDS011;43953;45.508;-122.806;2022-08-18T00:20:45;2.65;;;2.15;;
50851;SDS011;43953;45.508;-122.806;2022-08-18T00:21:17;3.25;;;1.63;;
50851;SDS011;43953;45.508;-122.806;2022-08-18T00:21:49;4.22;;;2.30;;
50851;SDS011;43953;45.508;-122.806;2022-08-18T00:22:21;3.60;;;2.08;;
50851;SDS011;43953;45.508;-122.806;2022-08-18T00:22:53;3.70;;;2.00;;
50851;SDS011;43953;45.508;-122.806;2022-08-18T00:23:26;2.97;;;1.80;;
50851;SDS011;43953;45.508;-122.806;2022-08-18T00:24:02;3.17;;;2.00;;
50851;SDS011;43953;45.508;-122.806;2022-08-18T00:24:35;4.45;;;1.90;;
50851;SDS011;43953;45.508;-122.806;2022-08-18T00:25:08;3.17;;;1.70;;
50851;SDS011;43953;45.508;-122.806;2022-08-18T00:25:42;2.42;;;1.95;;
50851;SDS011;43953;45.508;-122.806;2022-08-18T00:26:15;2.72;;;1.98;;
50851;SDS011;43953;45.508;-122.806;2022-08-18T00:26:46;3.20;;;1.50;;
50851;SDS011;43953;45.508;-122.806;2022-08-18T00:27:19;4.00;;;1.80;;
50851;SDS011;43953;45.508;-122.806;2022-08-18T00:27:56;4.47;;;2.05;;
50851;SDS011;43953;45.508;-122.806;2022-08-18T00:28:28;3.30;;;1.80;;
50851;SDS011;43953;45.508;-122.806;2022-08-18T00:28:59;7.28;;;2.05;;
50851;SDS011;43953;45.508;-122.806;2022-08-18T00:29:31;2.13;;;1.90;;
50851;SDS011;43953;45.508;-122.806;2022-08-18T00:30:04;2.25;;;1.80;;
50851;SDS011;43953;45.508;-122.806;2022-08-18T00:30:38;3.38;;;1.90;;
50851;SDS011;43953;45.508;-122.806;2022-08-18T00:31:10;2.42;;;1.70;;
50851;SDS011;43953;45.508;-122.806;2022-08-18T00:31:41;4.72;;;2.05;;
50851;SDS011;43953;45.508;-122.806;2022-08-18T00:32:14;4.38;;;1.92;;
50851;SDS011;43953;45.508;-122.806;2022-08-18T00:32:52;2.13;;;1.75;;
50851;SDS011;43953;45.508;-122.806;2022-08-18T00:33:25;3.63;;;1.70;;
50851;SDS011;43953;45.508;-122.806;2022-08-18T00:33:58;3.25;;;1.90;;
50851;SDS011;43953;45.508;-122.806;2022-08-18T00:34:30;1.83;;;1.73;;
50851;SDS011;43953;45.508;-122.806;2022-08-18T00:35:10;3.15;;;2.08;;
50851;SDS011;43953;45.508;-122.806;2022-08-18T00:35:56;2.85;;;1.65;;
50851;SDS011;43953;45.508;-122.806;2022-08-18T00:36:28;3.42;;;1.63;;
50851;SDS011;43953;45.508;-122.806;2022-08-18T00:37:02;1.80;;;1.60;;
50851;SDS011;43953;45.508;-122.806;2022-08-18T00:37:33;2.80;;;1.75;;
50851;SDS011;43953;45.508;-122.806;2022-08-18T00:38:06;3.28;;;1.70;;
50851;SDS011;43953;45.508;-122.806;2022-08-18T00:38:39;3.25;;;1.88;;
50851;SDS011;43953;45.508;-122.806;2022-08-18T00:39:10;4.55;;;2.05;;
50851;SDS011;43953;45.508;-122.806;2022-08-18T00:39:42;2.20;;;1.90;;
50851;SDS011;43953;45.508;-122.806;2022-08-18T00:40:15;3.53;;;1.85;;
50851;SDS011;43953;45.508;-122.806;2022-08-18T00:40:50;3.25;;;1.90;;
50851;SDS011;43953;45.508;-122.806;2022-08-18T00:41:25;3.20;;;1.70;;
50851;SDS011;43953;45.508;-122.806;2022-08-18T00:41:57;2.00;;;1.80;;
50851;SDS011;43953;45.508;-122.806;2022-08-18T00:42:29;2.40;;;1.88;;
50851;SDS011;43953;45.508;-122.806;2022-08-18T00:43:03;3.75;;;1.95;;
50851;SDS011;43953;45.508;-122.806;2022-08-18T00:43:38;3.60;;;1.92;;
50851;SDS011;43953;45.508;-122.806;2022-08-18T00:44:21;3.03;;;1.70;;
50851;SDS011;43953;45.508;-122.806;2022-08-18T00:44:54;4.80;;;1.80;;
50851;SDS011;43953;45.508;-122.806;2022-08-18T00:45:28;2.25;;;2.00;;
50851;SDS011;43953;45.508;-122.806;2022-08-18T00:46:07;2.30;;;1.63;;
50851;SDS011;43953;45.508;-122.806;2022-08-18T00:46:41;2.75;;;1.65;;
50851;SDS011;43953;45.508;-122.806;2022-08-18T00:47:13;4.38;;;1.75;;
50851;SDS011;43953;45.508;-122.806;2022-08-18T00:47:45;2.92;;;1.67;;
50851;SDS011;43953;45.508;-122.806;2022-08-18T00:48:17;2.97;;;1.85;;
50851;SDS011;43953;45.508;-122.806;2022-08-18T00:48:49;2.75;;;1.70;;
50851;SDS011;43953;45.508;-122.806;2022-08-18T00:49:22;2.53;;;1.67;;
50851;SDS011;43953;45.508;-122.806;2022-08-18T00:49:53;2.05;;;1.70;;
50851;SDS011;43953;45.508;-122.806;2022-08-18T00:51:19;1.80;;;1.70;;
50851;SDS011;43953;45.508;-122.806;2022-08-18T00:51:56;2.03;;;1.70;;
50851;SDS011;43953;45.508;-122.806;2022-08-18T00:52:30;3.00;;;1.70;;
50851;SDS011;43953;45.508;-122.806;2022-08-18T00:53:08;3.90;;;1.60;;
50851;SDS011;43953;45.508;-122.806;2022-08-18T00:53:47;2.10;;;1.90;;
50851;SDS011;43953;45.508;-122.806;2022-08-18T00:54:25;3.22;;;1.60;;
50851;SDS011;43953;45.508;-122.806;2022-08-18T00:55:00;3.50;;;1.88;;
50851;SDS011;43953;45.508;-122.806;2022-08-18T00:55:33;4.93;;;1.73;;
50851;SDS011;43953;45.508;-122.806;2022-08-18T00:56:07;6.05;;;1.88;;
50851;SDS011;43953;45.508;-122.806;2022-08-18T00:56:45;8.20;;;1.98;;
50851;SDS011;43953;45.508;-122.806;2022-08-18T00:57:21;4.68;;;2.03;;
50851;SDS011;43953;45.508;-122.806;2022-08-18T00:57:57;4.82;;;2.08;;
50851;SDS011;43953;45.508;-122.806;2022-08-18T00:58:38;4.15;;;2.40;;
50851;SDS011;43953;45.508;-122.806;2022-08-18T00:59:53;6.57;;;2.30;;
50851;SDS011;43953;45.508;-122.806;2022-08-18T01:00:41;4.80;;;2.05;;
50851;SDS011;43953;45.508;-122.806;2022-08-18T01:01:15;2.88;;;1.90;;
50851;SDS011;43953;45.508;-122.806;2022-08-18T01:01:49;2.78;;;1.90;;
50851;SDS011;43953;45.508;-122.806;2022-08-18T01:02:32;3.65;;;2.10;;
50851;SDS011;43953;45.508;-122.806;2022-08-18T01:03:11;4.10;;;2.20;;
50851;SDS011;43953;45.508;-122.806;2022-08-18T01:03:46;2.65;;;1.80;;
50851;SDS011;43953;45.508;-122.806;2022-08-18T01:04:27;4.88;;;2.10;;
50851;SDS011;43953;45.508;-122.806;2022-08-18T01:05:13;2.40;;;1.83;;
50851;SDS011;43953;45.508;-122.806;2022-08-18T01:06:00;2.08;;;1.90;;
50851;SDS011;43953;45.508;-122.806;2022-08-18T01:06:41;3.50;;;2.13;;
50851;SDS011;43953;45.508;-122.806;2022-08-18T01:07:23;4.00;;;2.05;;
50851;SDS011;43953;45.508;-122.806;2022-08-18T01:08:17;3.45;;;1.98;;
50851;SDS011;43953;45.508;-122.806;2022-08-18T01:08:49;4.43;;;1.80;;
50851;SDS011;43953;45.508;-122.806;2022-08-18T01:09:21;1.85;;;1.75;;
50851;SDS011;43953;45.508;-122.806;2022-08-18T01:09:53;2.83;;;1.67;;
50851;SDS011;43953;45.508;-122.806;2022-08-18T01:10:25;1.90;;;1.70;;
50851;SDS011;43953;45.508;-122.806;2022-08-18T01:10:57;2.53;;;1.77;;
50851;SDS011;43953;45.508;-122.806;2022-08-18T01:11:32;2.42;;;2.00;;
50851;SDS011;43953;45.508;-122.806;2022-08-18T01:12:06;2.75;;;1.90;;
50851;SDS011;43953;45.508;-122.806;2022-08-18T01:12:39;4.30;;;2.25;;
50851;SDS011;43953;45.508;-122.806;2022-08-18T01:13:11;5.28;;;1.90;;
50851;SDS011;43953;45.508;-122.806;2022-08-18T01:13:42;3.33;;;1.98;;
50851;SDS011;43953;45.508;-122.806;2022-08-18T01:14:15;4.32;;;2.05;;
50851;SDS011;43953;45.508;-122.806;2022-08-18T01:14:48;2.05;;;1.83;;
50851;SDS011;43953;45.508;-122.806;2022-08-18T01:15:20;3.08;;;1.80;;
50851;SDS011;43953;45.508;-122.806;2022-08-18T01:15:53;4.50;;;2.10;;
50851;SDS011;43953;45.508;-122.806;2022-08-18T01:16:25;4.15;;;1.90;;
50851;SDS011;43953;45.508;-122.806;2022-08-18T01:17:15;5.32;;;2.20;;
50851;SDS011;43953;45.508;-122.806;2022-08-18T01:18:06;2.50;;;2.00;;
50851;SDS011;43953;45.508;-122.806;2022-08-18T01:18:59;3.70;;;2.10;;
50851;SDS011;43953;45.508;-122.806;2022-08-18T01:20:44;2.95;;;1.80;;
50851;SDS011;43953;45.508;-122.806;2022-08-18T01:21:45;3.50;;;2.08;;
50851;SDS011;43953;45.508;-122.806;2022-08-18T01:23:19;2.65;;;1.90;;
50851;SDS011;43953;45.508;-122.806;2022-08-18T01:23:52;3.13;;;1.92;;
50851;SDS011;43953;45.508;-122.806;2022-08-18T01:24:29;3.25;;;2.40;;
50851;SDS011;43953;45.508;-122.806;2022-08-18T01:25:24;2.33;;;2.10;;
50851;SDS011;43953;45.508;-122.806;2022-08-18T01:26:15;3.10;;;1.85;;
50851;SDS011;43953;45.508;-122.806;2022-08-18T01:26:48;2.63;;;2.10;;
50851;SDS011;43953;45.508;-122.806;2022-08-18T01:27:20;4.03;;;2.10;;
50851;SDS011;43953;45.508;-122.806;2022-08-18T01:27:52;2.08;;;1.70;;
50851;SDS011;43953;45.508;-122.806;2022-08-18T01:28:27;3.65;;;1.98;;
50851;SDS011;43953;45.508;-122.806;2022-08-18T01:29:07;3.25;;;1.80;;
50851;SDS011;43953;45.508;-122.806;2022-08-18T01:29:41;4.90;;;1.90;;
50851;SDS011;43953;45.508;-122.806;2022-08-18T01:30:15;2.50;;;2.00;;
50851;SDS011;43953;45.508;-122.806;2022-08-18T01:30:50;4.40;;;1.90;;
50851;SDS011;43953;45.508;-122.806;2022-08-18T01:31:29;2.80;;;2.00;;
50851;SDS011;43953;45.508;-122.806;2022-08-18T01:32:04;2.53;;;2.00;;
50851;SDS011;43953;45.508;-122.806;2022-08-18T01:32:36;2.65;;;2.03;;
50851;SDS011;43953;45.508;-122.806;2022-08-18T01:33:10;3.53;;;2.10;;
50851;SDS011;43953;45.508;-122.806;2022-08-18T01:33:44;2.97;;;2.17;;
50851;SDS011;43953;45.508;-122.806;2022-08-18T01:34:16;6.60;;;2.53;;
50851;SDS011;43953;45.508;-122.806;2022-08-18T01:34:51;3.40;;;2.13;;
50851;SDS011;43953;45.508;-122.806;2022-08-18T01:35:24;2.67;;;2.25;;
50851;SDS011;43953;45.508;-122.806;2022-08-18T01:36:00;2.88;;;2.22;;
50851;SDS011;43953;45.508;-122.806;2022-08-18T01:36:38;4.10;;;2.30;;
50851;SDS011;43953;45.508;-122.806;2022-08-18T01:37:12;2.88;;;2.30;;
50851;SDS011;43953;45.508;-122.806;2022-08-18T01:37:45;3.67;;;2.20;;
50851;SDS011;43953;45.508;-122.806;2022-08-18T01:38:18;3.28;;;2.30;;
50851;SDS011;43953;45.508;-122.806;2022-08-18T01:38:52;3.25;;;2.33;;
50851;SDS011;43953;45.508;-122.806;2022-08-18T01:39:24;3.90;;;2.42;;
50851;SDS011;43953;45.508;-122.806;2022-08-18T01:39:56;3.60;;;2.22;;
50851;SDS011;43953;45.508;-122.806;2022-08-18T01:40:28;3.00;;;2.40;;
50851;SDS011;43953;45.508;-122.806;2022-08-18T01:41:01;3.63;;;2.03;;
50851;SDS011;43953;45.508;-122.806;2022-08-18T01:41:33;3.17;;;2.03;;
50851;SDS011;43953;45.508;-122.806;2022-08-18T01:42:04;2.28;;;2.13;;
50851;SDS011;43953;45.508;-122.806;2022-08-18T01:42:37;2.40;;;2.10;;
50851;SDS011;43953;45.508;-122.806;2022-08-18T01:43:09;2.20;;;2.00;;
50851;SDS011;43953;45.508;-122.806;2022-08-18T01:43:41;3.05;;;2.13;;
50851;SDS011;43953;45.508;-122.806;2022-08-18T01:44:13;3.63;;;2.08;;
50851;SDS011;43953;45.508;-122.806;2022-08-18T01:44:45;3.55;;;2.20;;
50851;SDS011;43953;45.508;-122.806;2022-08-18T01:45:18;3.97;;;2.25;;
50851;SDS011;43953;45.508;-122.806;2022-08-18T01:45:50;2.25;;;2.00;;
50851;SDS011;43953;45.508;-122.806;2022-08-18T01:46:22;2.53;;;2.03;;
50851;SDS011;43953;45.508;-122.806;2022-08-18T01:46:54;2.30;;;2.10;;
50851;SDS011;43953;45.508;-122.806;2022-08-18T01:47:26;2.45;;;2.10;;
50851;SDS011;43953;45.508;-122.806;2022-08-18T01:47:58;3.28;;;2.10;;
50851;SDS011;43953;45.508;-122.806;2022-08-18T01:48:31;2.40;;;2.20;;
50851;SDS011;43953;45.508;-122.806;2022-08-18T01:49:07;3.53;;;2.08;;
50851;SDS011;43953;45.508;-122.806;2022-08-18T01:49:40;2.53;;;2.33;;
50851;SDS011;43953;45.508;-122.806;2022-08-18T01:50:15;2.97;;;2.67;;
50851;SDS011;43953;45.508;-122.806;2022-08-18T01:50:47;2.20;;;2.00;;
50851;SDS011;43953;45.508;-122.806;2022-08-18T01:51:20;2.60;;;2.35;;
50851;SDS011;43953;45.508;-122.806;2022-08-18T01:51:52;3.75;;;2.33;;
50851;SDS011;43953;45.508;-122.806;2022-08-18T01:52:25;2.92;;;2.50;;
50851;SDS011;43953;45.508;-122.806;2022-08-18T01:52:59;3.65;;;2.30;;
50851;SDS011;43953;45.508;-122.806;2022-08-18T01:53:34;4.82;;;2.38;;
50851;SDS011;43953;45.508;-122.806;2022-08-18T01:54:07;3.22;;;2.40;;
50851;SDS011;43953;45.508;-122.806;2022-08-18T01:54:41;4.35;;;2.45;;
50851;SDS011;43953;45.508;-122.806;2022-08-18T01:55:12;2.63;;;2.40;;
50851;SDS011;43953;45.508;-122.806;2022-08-18T01:55:44;4.80;;;2.45;;
50851;SDS011;43953;45.508;-122.806;2022-08-18T01:56:16;4.57;;;2.35;;
50851;SDS011;43953;45.508;-122.806;2022-08-18T01:56:47;2.95;;;2.50;;
50851;SDS011;43953;45.508;-122.806;2022-08-18T01:57:22;3.28;;;2.60;;
50851;SDS011;43953;45.508;-122.806;2022-08-18T01:57:54;4.43;;;2.50;;
50851;SDS011;43953;45.508;-122.806;2022-08-18T01:58:26;3.08;;;2.70;;
50851;SDS011;43953;45.508;-122.806;2022-08-18T01:58:58;2.53;;;2.33;;
50851;SDS011;43953;45.508;-122.806;2022-08-18T01:59:29;2.78;;;2.58;;
50851;SDS011;43953;45.508;-122.806;2022-08-18T02:00:01;2.72;;;2.53;;
50851;SDS011;43953;45.508;-122.806;2022-08-18T02:00:34;3.22;;;2.50;;
50851;SDS011;43953;45.508;-122.806;2022-08-18T02:01:06;3.58;;;2.50;;
50851;SDS011;43953;45.508;-122.806;2022-08-18T02:01:38;4.28;;;2.97;;
50851;SDS011;43953;45.508;-122.806;2022-08-18T02:02:11;3.75;;;2.78;;
50851;SDS011;43953;45.508;-122.806;2022-08-18T02:02:47;3.33;;;2.70;;
50851;SDS011;43953;45.508;-122.806;2022-08-18T02:03:20;2.97;;;2.65;;
50851;SDS011;43953;45.508;-122.806;2022-08-18T02:03:57;3.58;;;3.05;;
50851;SDS011;43953;45.508;-122.806;2022-08-18T02:04:30;3.20;;;2.58;;
50851;SDS011;43953;45.508;-122.806;2022-08-18T02:05:06;2.88;;;2.42;;
50851;SDS011;43953;45.508;-122.806;2022-08-18T02:05:43;3.20;;;3.00;;
50851;SDS011;43953;45.508;-122.806;2022-08-18T02:06:18;2.90;;;2.63;;
50851;SDS011;43953;45.508;-122.806;2022-08-18T02:06:51;3.35;;;2.70;;
50851;SDS011;43953;45.508;-122.806;2022-08-18T02:07:23;4.30;;;3.05;;
50851;SDS011;43953;45.508;-122.806;2022-08-18T02:07:54;3.03;;;2.78;;
50851;SDS011;43953;45.508;-122.806;2022-08-18T02:08:26;3.60;;;3.30;;
50851;SDS011;43953;45.508;-122.806;2022-08-18T02:08:58;3.83;;;2.67;;
50851;SDS011;43953;45.508;-122.806;2022-08-18T02:09:30;3.42;;;2.92;;
50851;SDS011;43953;45.508;-122.806;2022-08-18T02:10:04;3.30;;;3.00;;
50851;SDS011;43953;45.508;-122.806;2022-08-18T02:10:37;6.57;;;3.35;;
50851;SDS011;43953;45.508;-122.806;2022-08-18T02:11:10;4.47;;;3.40;;
50851;SDS011;43953;45.508;-122.806;2022-08-18T02:11:42;3.85;;;3.08;;
50851;SDS011;43953;45.508;-122.806;2022-08-18T02:12:14;4.82;;;3.20;;
50851;SDS011;43953;45.508;-122.806;2022-08-18T02:12:46;3.53;;;3.00;;
50851;SDS011;43953;45.508;-122.806;2022-08-18T02:13:18;3.80;;;3.10;;
50851;SDS011;43953;45.508;-122.806;2022-08-18T02:13:49;5.78;;;3.00;;
50851;SDS011;43953;45.508;-122.806;2022-08-18T02:14:22;3.95;;;3.25;;
50851;SDS011;43953;45.508;-122.806;2022-08-18T02:14:54;3.42;;;3.10;;
50851;SDS011;43953;45.508;-122.806;2022-08-18T02:15:26;3.17;;;2.80;;
50851;SDS011;43953;45.508;-122.806;2022-08-18T02:15:58;4.07;;;2.80;;
50851;SDS011;43953;45.508;-122.806;2022-08-18T02:16:30;4.15;;;2.78;;
50851;SDS011;43953;45.508;-122.806;2022-08-18T02:17:03;3.78;;;3.33;;
50851;SDS011;43953;45.508;-122.806;2022-08-18T02:17:38;3.60;;;3.03;;
50851;SDS011;43953;45.508;-122.806;2022-08-18T02:18:12;5.22;;;3.13;;
50851;SDS011;43953;45.508;-122.806;2022-08-18T02:18:49;3.95;;;3.13;;
50851;SDS011;43953;45.508;-122.806;2022-08-18T02:19:21;3.40;;;3.10;;
50851;SDS011;43953;45.508;-122.806;2022-08-18T02:19:53;3.88;;;2.60;;
50851;SDS011;43953;45.508;-122.806;2022-08-18T02:20:25;4.50;;;3.33;;
50851;SDS011;43953;45.508;-122.806;2022-08-18T02:20:58;3.35;;;3.05;;
50851;SDS011;43953;45.508;-122.806;2022-08-18T02:21:38;3.17;;;2.88;;
50851;SDS011;43953;45.508;-122.806;2022-08-18T02:22:11;3.53;;;3.00;;
50851;SDS011;43953;45.508;-122.806;2022-08-18T02:22:46;4.72;;;3.40;;
50851;SDS011;43953;45.508;-122.806;2022-08-18T02:23:18;4.10;;;3.28;;
50851;SDS011;43953;45.508;-122.806;2022-08-18T02:23:50;3.13;;;2.92;;
50851;SDS011;43953;45.508;-122.806;2022-08-18T02:24:22;4.30;;;3.03;;
50851;SDS011;43953;45.508;-122.806;2022-08-18T02:24:55;4.53;;;3.10;;
50851;SDS011;43953;45.508;-122.806;2022-08-18T02:25:27;3.38;;;3.05;;
50851;SDS011;43953;45.508;-122.806;2022-08-18T02:26:02;3.45;;;3.15;;
50851;SDS011;43953;45.508;-122.806;2022-08-18T02:26:35;4.45;;;3.10;;
50851;SDS011;43953;45.508;-122.806;2022-08-18T02:27:07;3.60;;;3.17;;
50851;SDS011;43953;45.508;-122.806;2022-08-18T02:27:41;3.00;;;2.80;;
50851;SDS011;43953;45.508;-122.806;2022-08-18T02:28:13;3.15;;;2.92;;
50851;SDS011;43953;45.508;-122.806;2022-08-18T02:28:45;3.35;;;3.00;;
50851;SDS011;43953;45.508;-122.806;2022-08-18T02:29:17;4.40;;;3.35;;
50851;SDS011;43953;45.508;-122.806;2022-08-18T02:29:48;3.47;;;3.15;;
50851;SDS011;43953;45.508;-122.806;2022-08-18T02:30:20;3.30;;;3.00;;
50851;SDS011;43953;45.508;-122.806;2022-08-18T02:30:52;4.20;;;3.05;;
50851;SDS011;43953;45.508;-122.806;2022-08-18T02:31:24;4.63;;;2.97;;
50851;SDS011;43953;45.508;-122.806;2022-08-18T02:31:56;4.07;;;3.20;;
50851;SDS011;43953;45.508;-122.806;2022-08-18T02:32:28;4.03;;;3.25;;
50851;SDS011;43953;45.508;-122.806;2022-08-18T02:33:05;4.10;;;3.15;;
50851;SDS011;43953;45.508;-122.806;2022-08-18T02:33:39;3.40;;;3.10;;
50851;SDS011;43953;45.508;-122.806;2022-08-18T02:34:11;3.45;;;3.15;;
50851;SDS011;43953;45.508;-122.806;2022-08-18T02:34:42;3.28;;;3.03;;
50851;SDS011;43953;45.508;-122.806;2022-08-18T02:35:14;3.28;;;3.00;;
50851;SDS011;43953;45.508;-122.806;2022-08-18T02:35:52;3.58;;;3.28;;
50851;SDS011;43953;45.508;-122.806;2022-08-18T02:36:24;3.15;;;2.85;;
50851;SDS011;43953;45.508;-122.806;2022-08-18T02:36:57;3.13;;;2.90;;
50851;SDS011;43953;45.508;-122.806;2022-08-18T02:37:30;4.78;;;3.15;;
50851;SDS011;43953;45.508;-122.806;2022-08-18T02:38:02;4.28;;;3.17;;
50851;SDS011;43953;45.508;-122.806;2022-08-18T02:38:35;4.18;;;3.00;;
50851;SDS011;43953;45.508;-122.806;2022-08-18T02:39:07;4.05;;;3.00;;
50851;SDS011;43953;45.508;-122.806;2022-08-18T02:39:39;3.30;;;3.00;;
50851;SDS011;43953;45.508;-122.806;2022-08-18T02:40:11;4.40;;;3.20;;
50851;SDS011;43953;45.508;-122.806;2022-08-18T02:40:43;3.20;;;2.90;;
50851;SDS011;43953;45.508;-122.806;2022-08-18T02:41:16;3.42;;;2.95;;
50851;SDS011;43953;45.508;-122.806;2022-08-18T02:41:47;4.43;;;2.80;;
50851;SDS011;43953;45.508;-122.806;2022-08-18T02:42:19;3.28;;;3.00;;
50851;SDS011;43953;45.508;-122.806;2022-08-18T02:42:51;3.30;;;2.92;;
50851;SDS011;43953;45.508;-122.806;2022-08-18T02:43:23;3.40;;;3.10;;
50851;SDS011;43953;45.508;-122.806;2022-08-18T02:43:54;4.68;;;3.15;;
50851;SDS011;43953;45.508;-122.806;2022-08-18T02:44:26;3.30;;;2.83;;
50851;SDS011;43953;45.508;-122.806;2022-08-18T02:44:58;3.33;;;2.95;;
50851;SDS011;43953;45.508;-122.806;2022-08-18T02:45:30;3.78;;;3.00;;
50851;SDS011;43953;45.508;-122.806;2022-08-18T02:46:02;3.47;;;3.17;;
50851;SDS011;43953;45.508;-122.806;2022-08-18T02:46:35;3.90;;;3.00;;
50851;SDS011;43953;45.508;-122.806;2022-08-18T02:47:08;4.70;;;2.85;;
50851;SDS011;43953;45.508;-122.806;2022-08-18T02:47:40;3.70;;;3.30;;
50851;SDS011;43953;45.508;-122.806;2022-08-18T02:48:12;3.50;;;3.15;;
50851;SDS011;43953;45.508;-122.806;2022-08-18T02:48:44;4.10;;;3.25;;
50851;SDS011;43953;45.508;-122.806;2022-08-18T02:49:17;3.83;;;3.00;;
50851;SDS011;43953;45.508;-122.806;2022-08-18T02:49:49;3.30;;;3.00;;
50851;SDS011;43953;45.508;-122.806;2022-08-18T02:50:20;3.47;;;3.17;;
50851;SDS011;43953;45.508;-122.806;2022-08-18T02:50:58;3.50;;;3.15;;
50851;SDS011;43953;45.508;-122.806;2022-08-18T02:51:43;3.55;;;3.22;;
50851;SDS011;43953;45.508;-122.806;2022-08-18T02:52:15;5.03;;;3.40;;
50851;SDS011;43953;45.508;-122.806;2022-08-18T02:52:47;4.80;;;3.40;;
50851;SDS011;43953;45.508;-122.806;2022-08-18T02:53:19;3.33;;;3.03;;
50851;SDS011;43953;45.508;-122.806;2022-08-18T02:53:52;4.28;;;3.00;;
50851;SDS011;43953;45.508;-122.806;2022-08-18T02:54:59;5.70;;;3.15;;
50851;SDS011;43953;45.508;-122.806;2022-08-18T02:55:32;3.47;;;2.92;;
50851;SDS011;43953;45.508;-122.806;2022-08-18T02:56:05;3.70;;;3.17;;
50851;SDS011;43953;45.508;-122.806;2022-08-18T02:56:54;4.10;;;3.15;;
50851;SDS011;43953;45.508;-122.806;2022-08-18T02:57:27;3.35;;;3.05;;
50851;SDS011;43953;45.508;-122.806;2022-08-18T02:57:59;4.50;;;3.20;;
50851;SDS011;43953;45.508;-122.806;2022-08-18T02:58:32;4.00;;;3.25;;
50851;SDS011;43953;45.508;-122.806;2022-08-18T02:59:05;4.03;;;3.60;;
50851;SDS011;43953;45.508;-122.806;2022-08-18T02:59:38;3.40;;;3.00;;
50851;SDS011;43953;45.508;-122.806;2022-08-18T03:00:43;3.30;;;3.00;;
50851;SDS011;43953;45.508;-122.806;2022-08-18T03:01:15;3.65;;;3.35;;
50851;SDS011;43953;45.508;-122.806;2022-08-18T03:01:48;3.33;;;3.05;;
50851;SDS011;43953;45.508;-122.806;2022-08-18T03:02:21;3.80;;;3.47;;
50851;SDS011;43953;45.508;-122.806;2022-08-18T03:02:53;4.20;;;3.50;;
50851;SDS011;43953;45.508;-122.806;2022-08-18T03:03:25;3.95;;;3.25;;
50851;SDS011;43953;45.508;-122.806;2022-08-18T03:03:57;3.50;;;3.20;;
50851;SDS011;43953;45.508;-122.806;2022-08-18T03:04:30;4.35;;;3.45;;
50851;SDS011;43953;45.508;-122.806;2022-08-18T03:05:03;4.57;;;3.22;;
50851;SDS011;43953;45.508;-122.806;2022-08-18T03:05:36;3.20;;;2.90;;
50851;SDS011;43953;45.508;-122.806;2022-08-18T03:06:08;3.30;;;3.05;;
50851;SDS011;43953;45.508;-122.806;2022-08-18T03:06:40;3.80;;;2.80;;
50851;SDS011;43953;45.508;-122.806;2022-08-18T03:07:13;3.65;;;3.28;;
50851;SDS011;43953;45.508;-122.806;2022-08-18T03:07:45;3.35;;;2.85;;
50851;SDS011;43953;45.508;-122.806;2022-08-18T03:08:17;3.50;;;2.88;;
50851;SDS011;43953;45.508;-122.806;2022-08-18T03:08:49;3.60;;;3.30;;
50851;SDS011;43953;45.508;-122.806;2022-08-18T03:09:21;3.72;;;3.20;;
50851;SDS011;43953;45.508;-122.806;2022-08-18T03:09:54;4.93;;;2.97;;
50851;SDS011;43953;45.508;-122.806;2022-08-18T03:10:25;3.50;;;3.20;;
50851;SDS011;43953;45.508;-122.806;2022-08-18T03:10:57;4.88;;;3.42;;
50851;SDS011;43953;45.508;-122.806;2022-08-18T03:11:29;4.65;;;3.05;;
50851;SDS011;43953;45.508;-122.806;2022-08-18T03:12:01;3.97;;;3.28;;
50851;SDS011;43953;45.508;-122.806;2022-08-18T03:12:33;4.80;;;3.40;;
50851;SDS011;43953;45.508;-122.806;2022-08-18T03:13:05;3.53;;;3.22;;
50851;SDS011;43953;45.508;-122.806;2022-08-18T03:13:36;3.58;;;2.97;;
50851;SDS011;43953;45.508;-122.806;2022-08-18T03:14:08;3.40;;;3.10;;
50851;SDS011;43953;45.508;-122.806;2022-08-18T03:14:41;3.40;;;3.10;;
50851;SDS011;43953;45.508;-122.806;2022-08-18T03:15:13;3.35;;;3.03;;
50851;SDS011;43953;45.508;-122.806;2022-08-18T03:15:45;4.03;;;3.22;;
50851;SDS011;43953;45.508;-122.806;2022-08-18T03:16:17;3.47;;;2.90;;
50851;SDS011;43953;45.508;-122.806;2022-08-18T03:16:51;3.00;;;2.80;;
50851;SDS011;43953;45.508;-122.806;2022-08-18T03:17:23;3.42;;;3.13;;
50851;SDS011;43953;45.508;-122.806;2022-08-18T03:17:54;3.30;;;3.00;;
50851;SDS011;43953;45.508;-122.806;2022-08-18T03:18:26;3.45;;;2.90;;
50851;SDS011;43953;45.508;-122.806;2022-08-18T03:18:58;4.20;;;2.72;;
50851;SDS011;43953;45.508;-122.806;2022-08-18T03:19:31;3.78;;;2.70;;
50851;SDS011;43953;45.508;-122.806;2022-08-18T03:20:03;4.15;;;2.78;;
50851;SDS011;43953;45.508;-122.806;2022-08-18T03:20:36;4.07;;;3.03;;